createdAt,value
2018-06-30T00:02:07.473Z,96440.12
2018-06-30T00:05:32.142Z,96437.02
2018-06-30T00:08:57.438Z,96425.63
2018-06-30T00:12:22.173Z,96429.47
2018-06-30T00:15:46.939Z,96429.99
2018-06-30T00:19:11.702Z,96424.22
2018-06-30T00:22:36.385Z,96420.53
2018-06-30T00:26:01.131Z,96426.00
2018-06-30T00:29:25.818Z,96421.73
2018-06-30T00:32:50.472Z,96415.17
2018-06-30T00:36:16.220Z,96417.10
2018-06-30T00:39:40.852Z,96419.25
2018-06-30T00:43:06.991Z,96417.84
2018-06-30T00:46:31.841Z,96414.96
2018-06-30T00:49:56.782Z,96414.80
2018-06-30T00:53:21.511Z,96415.96
2018-06-30T00:56:46.329Z,96415.70
2018-06-30T01:00:10.665Z,96405.51
2018-06-30T01:03:35.355Z,96405.41
2018-06-30T01:06:59.638Z,96403.73
2018-06-30T01:10:24.356Z,96409.55
2018-06-30T01:13:49.030Z,96400.11
2018-06-30T01:17:13.660Z,96404.05
2018-06-30T01:20:38.300Z,96392.80
2018-06-30T01:24:02.947Z,96402.09
2018-06-30T01:27:28.842Z,96403.63
2018-06-30T01:30:53.530Z,96400.31
2018-06-30T01:34:17.963Z,96402.14
2018-06-30T01:37:43.676Z,96398.00
2018-06-30T01:41:07.960Z,96405.94
2018-06-30T01:44:32.704Z,96408.16
2018-06-30T01:47:57.331Z,96399.41
2018-06-30T01:51:22.033Z,96401.51
2018-06-30T01:54:46.786Z,96396.95
2018-06-30T01:58:11.422Z,96398.88
2018-06-30T02:01:36.272Z,96401.48
2018-06-30T02:05:00.932Z,96396.38
2018-06-30T02:08:25.613Z,96397.72
2018-06-30T02:11:50.236Z,96393.22
2018-06-30T02:15:14.933Z,96395.69
2018-06-30T02:18:39.574Z,96396.78
2018-06-30T02:22:04.277Z,96394.22
2018-06-30T02:25:28.627Z,96391.54
2018-06-30T02:28:53.914Z,96388.73
2018-06-30T02:32:18.543Z,96384.55
2018-06-30T02:35:43.223Z,96384.94
2018-06-30T02:39:09.178Z,96385.98
2018-06-30T02:42:33.827Z,96394.17
2018-06-30T02:45:58.608Z,96387.70
2018-06-30T02:49:23.336Z,96385.20
2018-06-30T02:52:48.073Z,96395.41
2018-06-30T02:56:12.829Z,96398.23
2018-06-30T02:59:37.461Z,96395.86
2018-06-30T03:03:02.113Z,96396.48
2018-06-30T03:06:26.769Z,96396.70
2018-06-30T03:09:51.619Z,96396.37
2018-06-30T03:13:16.352Z,96397.22
2018-06-30T03:16:41.134Z,96400.06
2018-06-30T03:20:06.032Z,96396.61
2018-06-30T03:23:31.806Z,96391.73
2018-06-30T03:26:56.558Z,96400.39
2018-06-30T03:30:21.306Z,96394.67
2018-06-30T03:33:45.847Z,96399.11
2018-06-30T03:37:10.682Z,96389.29
2018-06-30T03:40:35.389Z,96386.81
2018-06-30T03:44:00.130Z,96392.68
2018-06-30T03:47:24.858Z,96387.80
2018-06-30T03:50:49.506Z,96382.99
2018-06-30T03:54:14.249Z,96385.53
2018-06-30T03:57:39.951Z,96386.75
2018-06-30T04:01:04.648Z,96384.59
2018-06-30T04:04:29.304Z,96387.48
2018-06-30T04:07:54.043Z,96396.80
2018-06-30T04:11:18.866Z,96393.11
2018-06-30T04:14:43.221Z,96384.72
2018-06-30T04:18:08.061Z,96384.07
2018-06-30T04:21:32.704Z,96390.48
2018-06-30T04:24:57.354Z,96394.50
2018-06-30T04:28:22.107Z,96402.95
2018-06-30T04:31:47.054Z,96398.16
2018-06-30T04:35:11.778Z,96405.34
2018-06-30T04:38:36.396Z,96406.94
2018-06-30T04:42:01.098Z,96413.80
2018-06-30T04:45:25.797Z,96417.97
2018-06-30T04:48:50.446Z,96414.19
2018-06-30T04:52:14.830Z,96419.06
2018-06-30T04:55:39.541Z,96426.18
2018-06-30T04:59:05.413Z,96421.52
2018-06-30T05:02:30.204Z,96419.84
2018-06-30T05:05:54.897Z,96418.52
2018-06-30T05:09:19.598Z,96420.02
2018-06-30T05:12:44.383Z,96416.16
2018-06-30T05:16:09.055Z,96414.96
2018-06-30T05:19:33.477Z,96412.44
2018-06-30T05:22:59.125Z,96421.36
2018-06-30T05:26:23.877Z,96420.42
2018-06-30T05:29:48.617Z,96422.19
2018-06-30T05:33:13.249Z,96420.42
2018-06-30T05:36:37.953Z,96424.46
2018-06-30T05:40:02.679Z,96418.27
2018-06-30T05:43:27.358Z,96430.66
2018-06-30T05:46:52.178Z,96426.87
2018-06-30T05:50:16.948Z,96437.33
2018-06-30T05:53:41.851Z,96430.45
2018-06-30T05:57:08.501Z,96434.34
2018-06-30T06:00:33.305Z,96435.49
2018-06-30T06:03:58.099Z,96437.06
2018-06-30T06:07:22.732Z,96438.33
2018-06-30T06:10:47.381Z,96446.12
2018-06-30T06:14:12.287Z,96445.19
2018-06-30T06:17:36.997Z,96444.50
2018-06-30T06:21:01.677Z,96447.77
2018-06-30T06:24:26.445Z,96456.83
2018-06-30T06:27:50.804Z,96451.36
2018-06-30T06:31:15.532Z,96446.80
2018-06-30T06:34:40.281Z,96446.61
2018-06-30T06:38:05.085Z,96442.80
2018-06-30T06:41:29.717Z,96435.81
2018-06-30T06:44:54.432Z,96441.13
2018-06-30T06:48:19.088Z,96442.23
2018-06-30T06:51:43.765Z,96446.88
2018-06-30T06:55:08.465Z,96434.50
2018-06-30T06:58:33.164Z,96437.88
2018-06-30T07:01:57.806Z,96429.98
2018-06-30T07:05:22.088Z,96433.65
2018-06-30T07:08:46.741Z,96432.91
2018-06-30T07:12:11.063Z,96429.53
2018-06-30T07:15:35.697Z,96427.56
2018-06-30T07:19:00.354Z,96433.91
2018-06-30T07:22:25.712Z,96427.20
2018-06-30T07:25:51.521Z,96431.84
2018-06-30T07:29:16.211Z,96433.81
2018-06-30T07:32:40.945Z,96439.40
2018-06-30T07:36:05.585Z,96438.45
2018-06-30T07:39:30.313Z,96436.89
2018-06-30T07:42:55.105Z,96442.82
2018-06-30T07:46:19.716Z,96441.87
2018-06-30T07:49:44.382Z,96447.54
2018-06-30T07:53:09.175Z,96440.16
2018-06-30T07:56:33.977Z,96428.60
2018-06-30T07:59:58.761Z,96432.92
2018-06-30T08:03:23.153Z,96436.79
2018-06-30T08:06:48.696Z,96431.34
2018-06-30T08:10:14.091Z,96430.85
2018-06-30T08:13:39.775Z,96429.75
2018-06-30T08:17:04.515Z,96432.53
2018-06-30T08:20:30.352Z,96427.08
2018-06-30T08:23:55.107Z,96424.81
2018-06-30T08:27:19.806Z,96425.33
2018-06-30T08:30:44.559Z,96422.11
2018-06-30T08:34:09.507Z,96424.50
2018-06-30T08:37:34.314Z,96416.25
2018-06-30T08:40:59.155Z,96416.58
2018-06-30T08:44:24.918Z,96424.59
2018-06-30T08:47:49.731Z,96416.30
2018-06-30T08:51:14.708Z,96419.48
2018-06-30T08:54:40.310Z,96425.75
2018-06-30T08:58:07.107Z,96421.14
2018-06-30T09:01:32.017Z,96425.78
2018-06-30T09:04:56.703Z,96417.64
2018-06-30T09:08:21.639Z,96413.48
2018-06-30T09:11:46.454Z,96414.66
2018-06-30T09:15:11.123Z,96407.19
2018-06-30T09:18:35.723Z,96408.34
2018-06-30T09:22:00.395Z,96407.00
2018-06-30T09:25:26.475Z,96399.89
2018-06-30T09:28:51.389Z,96401.02
2018-06-30T09:32:16.272Z,96399.41
2018-06-30T09:35:41.048Z,96397.23
2018-06-30T09:39:09.634Z,96397.10
2018-06-30T09:42:34.431Z,96394.78
2018-06-30T09:45:59.136Z,96397.92
2018-06-30T09:49:23.837Z,96387.87
2018-06-30T09:52:48.577Z,96398.27
2018-06-30T09:56:12.967Z,96391.23
2018-06-30T09:59:37.645Z,96389.20
2018-06-30T10:03:02.300Z,96391.05
2018-06-30T10:06:27.018Z,96393.92
2018-06-30T10:09:52.397Z,96399.23
2018-06-30T10:13:17.118Z,96395.08
2018-06-30T10:16:41.855Z,96389.72
2018-06-30T10:20:06.604Z,96382.94
2018-06-30T10:23:31.283Z,96376.59
2018-06-30T10:26:55.621Z,96373.45
2018-06-30T10:30:20.343Z,96378.97
2018-06-30T10:33:44.985Z,96377.53
2018-06-30T10:37:09.720Z,96370.84
2018-06-30T10:40:34.543Z,96371.75
2018-06-30T10:43:59.423Z,96366.96
2018-06-30T10:47:24.338Z,96351.50
2018-06-30T10:50:50.162Z,96354.92
2018-06-30T10:54:14.923Z,96344.75
2018-06-30T10:57:40.941Z,96350.50
2018-06-30T11:01:05.855Z,96347.31
2018-06-30T11:04:32.147Z,96342.09
2018-06-30T11:07:57.056Z,96339.20
2018-06-30T11:11:22.565Z,96337.65
2018-06-30T11:14:47.221Z,96332.91
2018-06-30T11:18:12.146Z,96331.84
2018-06-30T11:21:36.936Z,96340.08
2018-06-30T11:25:01.612Z,96323.88
2018-06-30T11:28:26.272Z,96323.09
2018-06-30T11:31:51.258Z,96320.48
2018-06-30T11:35:15.941Z,96313.05
2018-06-30T11:38:40.756Z,96317.48
2018-06-30T11:42:05.905Z,96301.11
2018-06-30T11:45:31.560Z,96308.28
2018-06-30T11:48:56.295Z,96300.12
2018-06-30T11:52:21.151Z,96291.94
2018-06-30T11:55:47.095Z,96295.72
2018-06-30T11:59:12.825Z,96286.89
2018-06-30T12:02:37.852Z,96281.66
2018-06-30T12:06:02.794Z,96281.54
2018-06-30T12:09:27.718Z,96274.55
2018-06-30T12:12:52.524Z,96278.65
2018-06-30T12:16:18.064Z,96272.45
2018-06-30T12:19:43.021Z,96267.52
2018-06-30T12:23:08.891Z,96262.41
2018-06-30T12:26:33.910Z,96260.89
2018-06-30T12:29:58.967Z,96263.77
2018-06-30T12:33:24.610Z,96249.06
2018-06-30T12:36:49.664Z,96259.70
2018-06-30T12:40:14.495Z,96255.91
2018-06-30T12:43:39.301Z,96250.34
2018-06-30T12:47:04.032Z,96246.91
2018-06-30T12:50:28.714Z,96249.90
2018-06-30T12:53:53.553Z,96246.92
2018-06-30T12:57:20.986Z,96246.11
2018-06-30T13:00:45.868Z,96247.55
2018-06-30T13:04:10.736Z,96253.02
2018-06-30T13:07:38.592Z,96243.78
2018-06-30T13:11:03.402Z,96246.09
2018-06-30T13:14:27.797Z,96243.34
2018-06-30T13:17:52.918Z,96238.70
2018-06-30T13:21:18.254Z,96240.73
2018-06-30T13:24:42.985Z,96230.53
2018-06-30T13:28:07.853Z,96233.14
2018-06-30T13:31:32.694Z,96240.66
2018-06-30T13:34:57.452Z,96236.75
2018-06-30T13:38:22.265Z,96229.58
2018-06-30T13:41:47.113Z,96228.33
2018-06-30T13:45:12.326Z,96233.68
2018-06-30T13:48:37.112Z,96221.88
2018-06-30T13:52:02.113Z,96214.33
2018-06-30T13:55:27.140Z,96220.08
2018-06-30T13:58:51.926Z,96212.52
2018-06-30T14:02:17.619Z,96210.11
2018-06-30T14:05:42.276Z,96208.61
2018-06-30T14:09:10.503Z,96211.13
2018-06-30T14:12:35.372Z,96210.06
2018-06-30T14:16:00.129Z,96196.34
2018-06-30T14:19:24.805Z,96197.16
2018-06-30T14:22:49.558Z,96192.92
2018-06-30T14:26:14.237Z,96192.86
2018-06-30T14:29:38.913Z,96187.22
2018-06-30T14:33:03.316Z,96186.03
2018-06-30T14:36:28.050Z,96188.94
2018-06-30T14:39:52.802Z,96177.95
2018-06-30T14:43:17.169Z,96177.13
2018-06-30T14:46:41.931Z,96175.95
2018-06-30T14:50:06.737Z,96178.27
2018-06-30T14:53:31.486Z,96172.66
2018-06-30T14:56:56.276Z,96174.50
2018-06-30T15:00:20.765Z,96178.37
2018-06-30T15:03:45.484Z,96174.50
2018-06-30T15:07:10.286Z,96173.26
2018-06-30T15:10:35.092Z,96175.89
2018-06-30T15:13:59.883Z,96177.94
2018-06-30T15:17:24.591Z,96182.13
2018-06-30T15:20:49.264Z,96180.57
2018-06-30T15:24:14.027Z,96179.91
2018-06-30T15:27:38.903Z,96183.22
2018-06-30T15:31:03.263Z,96172.45
2018-06-30T15:34:27.906Z,96177.76
2018-06-30T15:37:52.907Z,96176.13
2018-06-30T15:41:17.760Z,96169.70
2018-06-30T15:44:42.535Z,96172.38
2018-06-30T15:48:07.363Z,96166.00
2018-06-30T15:51:32.068Z,96169.98
2018-06-30T15:54:56.827Z,96164.19
2018-06-30T15:58:21.548Z,96161.84
2018-06-30T16:01:46.193Z,96158.09
2018-06-30T16:05:11.065Z,96156.02
2018-06-30T16:08:35.808Z,96155.23
2018-06-30T16:12:00.611Z,96151.52
2018-06-30T16:15:25.036Z,96157.64
2018-06-30T16:18:50.011Z,96149.09
2018-06-30T16:22:14.813Z,96149.59
2018-06-30T16:33:38.849Z,96133.16
2018-06-30T16:37:03.766Z,96128.63
2018-06-30T16:40:28.565Z,96130.85
2018-06-30T16:43:53.593Z,96130.00
2018-06-30T16:47:18.380Z,96136.83
2018-06-30T16:50:43.142Z,96131.45
2018-06-30T16:54:08.150Z,96130.09
2018-06-30T16:57:32.924Z,96130.11
2018-06-30T17:00:57.903Z,96133.34
2018-06-30T17:04:22.799Z,96124.31
2018-06-30T17:07:47.741Z,96120.42
2018-06-30T17:11:12.571Z,96125.56
2018-06-30T17:14:38.250Z,96121.06
2018-06-30T17:18:03.036Z,96127.10
2018-06-30T17:21:27.725Z,96126.69
2018-06-30T17:24:52.651Z,96126.94
2018-06-30T17:28:17.417Z,96125.70
2018-06-30T17:31:42.191Z,96124.56
2018-06-30T17:35:07.084Z,96125.26
2018-06-30T17:38:31.942Z,96131.30
2018-06-30T17:41:56.677Z,96125.28
2018-06-30T17:45:21.313Z,96124.00
2018-06-30T17:48:46.057Z,96119.67
2018-06-30T17:52:10.845Z,96123.48
2018-06-30T17:55:35.690Z,96132.45
2018-06-30T17:59:00.432Z,96133.23
2018-06-30T18:02:25.356Z,96133.79
2018-06-30T18:05:50.448Z,96129.05
2018-06-30T18:09:16.361Z,96138.70
2018-06-30T18:12:41.181Z,96137.41
2018-06-30T18:16:06.352Z,96140.39
2018-06-30T18:19:31.150Z,96143.53
2018-06-30T18:22:56.057Z,96145.34
2018-06-30T18:26:20.447Z,96138.56
2018-06-30T18:29:45.181Z,96144.03
2018-06-30T18:33:09.924Z,96150.78
2018-06-30T18:36:34.796Z,96158.30
2018-06-30T18:39:59.623Z,96152.99
2018-06-30T18:43:23.938Z,96151.58
2018-06-30T18:46:48.677Z,96155.79
2018-06-30T18:50:13.262Z,96157.59
2018-06-30T18:53:37.915Z,96158.72
2018-06-30T18:57:02.744Z,96164.67
2018-06-30T19:00:29.786Z,96159.74
2018-06-30T19:03:54.614Z,96159.56
2018-06-30T19:07:19.344Z,96162.30
2018-06-30T19:10:44.181Z,96168.78
2018-06-30T19:14:09.660Z,96170.99
2018-06-30T19:17:34.606Z,96173.27
2018-06-30T19:21:00.554Z,96178.20
2018-06-30T19:24:25.192Z,96178.27
2018-06-30T19:27:49.866Z,96185.42
2018-06-30T19:31:14.632Z,96189.77
2018-06-30T19:34:39.302Z,96189.67
2018-06-30T19:38:04.053Z,96189.86
2018-06-30T19:41:28.399Z,96193.53
2018-06-30T19:44:53.130Z,96197.47
2018-06-30T19:48:18.006Z,96193.84
2018-06-30T19:51:42.709Z,96199.91
2018-06-30T19:55:07.463Z,96202.48
2018-06-30T19:58:32.138Z,96206.92
2018-06-30T20:01:56.789Z,96205.02
2018-06-30T20:05:21.464Z,96204.17
2018-06-30T20:08:46.354Z,96207.11
2018-06-30T20:12:10.993Z,96206.86
2018-06-30T20:15:35.684Z,96211.22
2018-06-30T20:19:00.344Z,96211.02
2018-06-30T20:22:25.248Z,96214.58
2018-06-30T20:25:49.603Z,96212.74
2018-06-30T20:29:13.953Z,96220.80
2018-06-30T20:32:38.842Z,96219.61
2018-06-30T20:36:03.578Z,96217.95
2018-06-30T20:39:28.276Z,96227.30
2018-06-30T20:42:52.983Z,96226.77
2018-06-30T20:46:17.691Z,96229.79
2018-06-30T20:49:42.436Z,96232.23
2018-06-30T20:53:07.300Z,96228.67
2018-06-30T20:56:32.090Z,96228.72
2018-06-30T20:59:56.761Z,96242.87
2018-06-30T21:03:21.134Z,96243.77
2018-06-30T21:06:45.911Z,96248.73
2018-06-30T21:10:10.302Z,96247.41
2018-06-30T21:13:35.103Z,96247.84
2018-06-30T21:16:59.960Z,96251.66
2018-06-30T21:20:24.638Z,96257.02
2018-06-30T21:23:49.721Z,96260.75
2018-06-30T21:27:14.349Z,96263.55
2018-06-30T21:30:39.109Z,96258.55
2018-06-30T21:34:03.540Z,96265.03
2018-06-30T21:37:28.552Z,96266.05
2018-06-30T21:40:53.239Z,96260.70
2018-06-30T21:44:17.971Z,96262.52
2018-06-30T21:47:42.366Z,96263.34
2018-06-30T21:51:07.198Z,96258.45
2018-06-30T21:54:45.918Z,96259.44
2018-06-30T21:58:16.385Z,96255.50
2018-06-30T22:01:42.483Z,96263.64
2018-06-30T22:05:07.482Z,96270.12
2018-06-30T22:08:32.177Z,96274.96
2018-06-30T22:11:56.857Z,96268.00
2018-06-30T22:15:21.279Z,96266.83
2018-06-30T22:18:45.905Z,96269.52
2018-06-30T22:22:10.613Z,96263.88
2018-06-30T22:25:35.504Z,96268.89
2018-06-30T22:30:29.309Z,96267.54
2018-06-30T22:33:56.469Z,96262.27
2018-06-30T22:37:21.145Z,96264.58
2018-06-30T22:40:45.799Z,96263.47
2018-06-30T22:44:10.455Z,96261.64
2018-06-30T22:47:35.131Z,96263.12
2018-06-30T22:50:59.797Z,96268.28
2018-06-30T22:54:24.456Z,96266.13
2018-06-30T22:57:49.080Z,96259.72
2018-06-30T23:01:13.705Z,96262.34
2018-06-30T23:04:38.403Z,96262.00
2018-06-30T23:08:03.077Z,96268.47
2018-06-30T23:11:27.778Z,96266.63
2018-06-30T23:14:52.419Z,96266.65
2018-06-30T23:18:16.709Z,96271.59
2018-06-30T23:21:41.324Z,96273.20
2018-06-30T23:25:06.178Z,96276.19
2018-06-30T23:28:30.883Z,96275.17
2018-06-30T23:31:55.590Z,96280.16
2018-06-30T23:35:20.529Z,96285.72
2018-06-30T23:38:45.299Z,96282.41
2018-06-30T23:42:09.971Z,96286.39
2018-06-30T23:45:34.656Z,96283.05
2018-06-30T23:48:59.366Z,96280.52
2018-06-30T23:52:24.048Z,96287.55
2018-06-30T23:55:48.698Z,96286.48
2018-06-30T23:59:13.298Z,96285.55
